createdAt,value
2018-12-14T00:02:10.174Z,102320.67
2018-12-14T00:04:37.763Z,102321.64
2018-12-14T00:07:05.455Z,102316.07
2018-12-14T00:09:33.047Z,102320.96
2018-12-14T00:12:00.654Z,102321.33
2018-12-14T00:14:28.319Z,102325.77
2018-12-14T00:16:55.930Z,102315.88
2018-12-14T00:19:23.512Z,102319.91
2018-12-14T00:21:51.119Z,102322.79
2018-12-14T00:24:18.713Z,102316.64
2018-12-14T00:26:46.318Z,102319.93
2018-12-14T00:29:13.915Z,102323.59
2018-12-14T00:31:41.519Z,102318.70
2018-12-14T00:34:09.084Z,102317.07
2018-12-14T00:36:36.678Z,102323.78
2018-12-14T00:39:05.498Z,102324.36
2018-12-14T00:41:33.094Z,102324.36
2018-12-14T00:44:00.677Z,102332.42
2018-12-14T00:46:28.283Z,102334.62
2018-12-14T00:48:55.875Z,102332.82
2018-12-14T00:51:23.559Z,102327.45
2018-12-14T00:53:51.147Z,102339.05
2018-12-14T00:56:18.754Z,102348.05
2018-12-14T00:58:46.348Z,102344.02
2018-12-14T01:01:13.950Z,102347.48
2018-12-14T01:03:41.531Z,102338.56
2018-12-14T01:06:09.139Z,102345.66
2018-12-14T01:08:36.731Z,102345.28
2018-12-14T01:11:04.552Z,102349.80
2018-12-14T01:13:32.133Z,102355.26
2018-12-14T01:15:59.726Z,102355.26
2018-12-14T01:18:27.338Z,102357.46
2018-12-14T01:20:54.928Z,102357.00
2018-12-14T01:23:22.536Z,102357.95
2018-12-14T01:25:50.298Z,102354.32
2018-12-14T01:28:17.907Z,102356.60
2018-12-14T01:30:45.492Z,102363.73
2018-12-14T01:33:13.099Z,102356.60
2018-12-14T01:35:40.694Z,102352.57
2018-12-14T01:38:08.311Z,102357.58
2018-12-14T01:40:35.895Z,102357.20
2018-12-14T01:43:03.689Z,102361.61
2018-12-14T01:45:31.271Z,102355.86
2018-12-14T01:47:58.895Z,102355.86
2018-12-14T01:50:26.494Z,102353.17
2018-12-14T01:52:54.113Z,102349.63
2018-12-14T01:55:21.698Z,102355.86
2018-12-14T01:57:49.306Z,102357.69
2018-12-14T02:00:29.301Z,102356.42
2018-12-14T02:02:56.911Z,102349.34
2018-12-14T02:05:24.490Z,102352.88
2018-12-14T02:07:52.107Z,102348.84
2018-12-14T02:10:19.686Z,102359.11
2018-12-14T02:12:47.273Z,102343.59
2018-12-14T02:15:14.854Z,102350.68
2018-12-14T02:17:42.461Z,102346.16
2018-12-14T02:20:10.051Z,102344.81
2018-12-14T02:22:37.663Z,102340.30
2018-12-14T02:25:05.631Z,102341.36
2018-12-14T02:27:33.243Z,102329.75
2018-12-14T02:32:57.037Z,102321.80
2018-12-14T02:35:24.631Z,102308.20
2018-12-14T02:37:52.327Z,102315.11
2018-12-14T02:40:19.920Z,102319.25
2018-12-14T02:42:47.542Z,102315.79
2018-12-14T02:45:15.139Z,102314.08
2018-12-14T02:47:42.764Z,102315.02
2018-12-14T02:50:10.376Z,102324.53
2018-12-14T02:52:37.987Z,102322.52
2018-12-14T02:55:05.579Z,102322.41
2018-12-14T02:57:48.388Z,102325.09
2018-12-14T03:00:15.983Z,102325.39
2018-12-14T03:02:43.596Z,102333.36
2018-12-14T03:05:11.179Z,102325.25
2018-12-14T03:07:38.794Z,102329.58
2018-12-14T03:10:06.649Z,102325.06
2018-12-14T03:12:34.273Z,102328.60
2018-12-14T03:15:01.865Z,102325.06
2018-12-14T03:17:29.539Z,102327.38
2018-12-14T03:19:57.435Z,102330.06
2018-12-14T03:22:25.416Z,102329.09
2018-12-14T03:24:53.029Z,102327.74
2018-12-14T03:27:20.624Z,102322.78
2018-12-14T03:29:48.233Z,102324.57
2018-12-14T03:32:15.825Z,102333.98
2018-12-14T03:34:43.454Z,102323.64
2018-12-14T03:37:11.058Z,102322.78
2018-12-14T03:39:38.680Z,102330.72
2018-12-14T03:42:06.325Z,102326.69
2018-12-14T03:44:33.940Z,102324.49
2018-12-14T03:47:01.533Z,102322.29
2018-12-14T03:49:29.151Z,102326.32
2018-12-14T03:51:56.742Z,102327.27
2018-12-14T03:54:24.361Z,102331.70
2018-12-14T03:56:51.951Z,102334.75
2018-12-14T03:59:19.566Z,102331.09
2018-12-14T04:01:47.159Z,102331.95
2018-12-14T04:04:14.776Z,102336.47
2018-12-14T04:06:42.364Z,102335.23
2018-12-14T04:09:09.979Z,102345.98
2018-12-14T04:11:37.568Z,102337.15
2018-12-14T04:14:05.177Z,102338.90
2018-12-14T04:16:32.771Z,102338.41
2018-12-14T04:19:00.392Z,102336.66
2018-12-14T04:21:27.984Z,102338.01
2018-12-14T04:23:55.675Z,102337.15
2018-12-14T04:26:23.267Z,102337.63
2018-12-14T04:28:50.883Z,102329.95
2018-12-14T04:31:18.476Z,102328.52
2018-12-14T04:33:46.104Z,102340.12
2018-12-14T04:36:13.695Z,102336.58
2018-12-14T04:38:41.307Z,102338.98
2018-12-14T04:41:08.901Z,102327.27
2018-12-14T04:43:36.515Z,102324.20
2018-12-14T04:46:04.185Z,102321.52
2018-12-14T04:48:31.803Z,102325.84
2018-12-14T04:50:59.405Z,102323.23
2018-12-14T04:53:27.014Z,102324.98
2018-12-14T04:55:55.186Z,102327.27
2018-12-14T04:58:22.820Z,102326.89
2018-12-14T05:00:50.411Z,102326.52
2018-12-14T05:03:17.998Z,102327.94
2018-12-14T05:05:45.605Z,102328.05
2018-12-14T05:08:13.197Z,102331.59
2018-12-14T05:10:40.813Z,102330.74
2018-12-14T05:13:08.403Z,102325.00
2018-12-14T05:15:36.017Z,102325.85
2018-12-14T05:18:03.611Z,102325.37
2018-12-14T05:20:31.227Z,102325.48
2018-12-14T05:22:58.818Z,102328.55
2018-12-14T05:25:26.429Z,102335.37
2018-12-14T05:27:54.018Z,102327.31
2018-12-14T05:30:21.811Z,102332.69
2018-12-14T05:32:49.403Z,102333.62
2018-12-14T05:35:17.034Z,102331.42
2018-12-14T05:37:44.625Z,102330.94
2018-12-14T05:40:12.244Z,102325.19
2018-12-14T05:42:39.834Z,102317.99
2018-12-14T05:45:07.452Z,102323.36
2018-12-14T05:47:35.051Z,102321.28
2018-12-14T05:50:02.666Z,102327.02
2018-12-14T05:52:30.264Z,102341.42
2018-12-14T05:54:57.897Z,102329.91
2018-12-14T05:57:25.498Z,102330.38
2018-12-14T05:59:53.110Z,102338.52
2018-12-14T06:02:20.783Z,102342.18
2018-12-14T06:04:48.395Z,102345.72
2018-12-14T06:07:15.991Z,102349.75
2018-12-14T06:09:43.616Z,102342.55
2018-12-14T06:12:11.406Z,102345.24
2018-12-14T06:14:39.094Z,102348.22
2018-12-14T06:17:06.691Z,102354.86
2018-12-14T06:19:34.302Z,102349.66
2018-12-14T06:22:01.899Z,102358.75
2018-12-14T06:24:29.511Z,102361.44
2018-12-14T06:26:57.098Z,102357.78
2018-12-14T06:29:24.716Z,102358.16
2018-12-14T06:31:52.302Z,102359.98
2018-12-14T06:34:19.893Z,102354.91
2018-12-14T06:36:47.507Z,102357.11
2018-12-14T06:39:15.538Z,102355.69
2018-12-14T06:41:43.436Z,102349.82
2018-12-14T06:44:11.026Z,102347.98
2018-12-14T06:46:38.635Z,102353.73
2018-12-14T06:49:06.220Z,102352.39
2018-12-14T06:51:33.828Z,102358.63
2018-12-14T06:54:01.414Z,102356.72
2018-12-14T06:56:29.023Z,102353.91
2018-12-14T06:58:56.608Z,102352.09
2018-12-14T07:01:24.215Z,102357.38
2018-12-14T07:03:51.795Z,102356.09
2018-12-14T07:06:19.404Z,102355.16
2018-12-14T07:08:46.986Z,102364.94
2018-12-14T07:11:14.591Z,102366.77
2018-12-14T07:13:42.171Z,102365.79
2018-12-14T07:16:09.773Z,102355.33
2018-12-14T07:18:37.355Z,102373.06
2018-12-14T07:21:04.958Z,102370.59
2018-12-14T07:23:32.543Z,102380.09
2018-12-14T07:26:00.138Z,102382.48
2018-12-14T07:28:27.727Z,102380.88
2018-12-14T07:30:55.912Z,102379.73
2018-12-14T07:33:23.493Z,102382.80
2018-12-14T07:35:51.099Z,102381.37
2018-12-14T07:38:18.683Z,102377.91
2018-12-14T07:40:46.290Z,102378.09
2018-12-14T07:43:13.876Z,102385.79
2018-12-14T07:45:41.492Z,102395.68
2018-12-14T07:48:09.085Z,102394.22
2018-12-14T07:50:36.700Z,102384.55
2018-12-14T07:53:09.161Z,102397.39
2018-12-14T07:55:34.226Z,102398.25
2018-12-14T07:58:01.834Z,102402.09
2018-12-14T08:00:29.442Z,102415.70
2018-12-14T08:02:57.024Z,102416.86
2018-12-14T08:05:24.639Z,102421.26
2018-12-14T08:07:52.235Z,102424.55
2018-12-14T08:10:19.931Z,102431.27
2018-12-14T08:12:47.519Z,102427.80
2018-12-14T08:15:15.507Z,102436.05
2018-12-14T08:17:43.094Z,102437.97
2018-12-14T08:20:16.943Z,102435.77
2018-12-14T08:22:40.337Z,102437.48
2018-12-14T08:25:08.016Z,102446.22
2018-12-14T08:27:35.595Z,102446.87
2018-12-14T08:30:03.365Z,102452.06
2018-12-14T08:32:37.403Z,102452.32
2018-12-14T08:35:06.147Z,102460.19
2018-12-14T08:37:33.751Z,102459.90
2018-12-14T08:40:01.335Z,102467.11
2018-12-14T08:42:28.944Z,102472.59
2018-12-14T08:44:57.637Z,102466.63
2018-12-14T08:47:26.150Z,102469.12
2018-12-14T08:49:53.867Z,102465.94
2018-12-14T08:52:21.475Z,102466.34
2018-12-14T08:54:49.061Z,102473.81
2018-12-14T08:57:16.663Z,102468.84
2018-12-14T08:59:44.243Z,102471.05
2018-12-14T09:02:11.864Z,102475.64
2018-12-14T09:04:39.451Z,102472.47
2018-12-14T09:07:07.063Z,102478.82
2018-12-14T09:09:34.652Z,102473.81
2018-12-14T09:12:02.266Z,102479.19
2018-12-14T09:14:29.859Z,102483.52
2018-12-14T09:16:57.515Z,102490.72
2018-12-14T09:19:25.096Z,102494.94
2018-12-14T09:21:52.703Z,102497.06
2018-12-14T09:24:20.292Z,102501.09
2018-12-14T09:26:59.214Z,102493.48
2018-12-14T09:29:26.811Z,102493.70
2018-12-14T09:31:54.516Z,102497.92
2018-12-14T09:34:22.105Z,102497.14
2018-12-14T09:36:49.695Z,102503.38
2018-12-14T09:39:17.311Z,102505.02
2018-12-14T09:41:44.907Z,102508.74
2018-12-14T09:44:12.530Z,102512.47
2018-12-14T09:46:40.119Z,102508.72
2018-12-14T09:49:07.737Z,102517.45
2018-12-14T09:51:35.327Z,102511.39
2018-12-14T09:54:02.939Z,102506.30
2018-12-14T09:56:30.546Z,102505.45
2018-12-14T09:58:58.154Z,102502.84
2018-12-14T10:01:25.745Z,102506.02
2018-12-14T10:03:53.547Z,102508.63
2018-12-14T10:06:21.134Z,102517.73
2018-12-14T10:08:51.688Z,102513.58
2018-12-14T10:11:19.352Z,102514.55
2018-12-14T10:13:46.958Z,102509.66
2018-12-14T10:16:14.719Z,102506.28
2018-12-14T10:18:42.895Z,102514.23
2018-12-14T10:21:10.489Z,102510.98
2018-12-14T10:23:38.093Z,102513.06
2018-12-14T10:26:05.678Z,102518.17
2018-12-14T10:28:33.282Z,102512.67
2018-12-14T10:31:00.858Z,102511.13
2018-12-14T10:33:28.468Z,102514.13
2018-12-14T10:35:56.055Z,102512.38
2018-12-14T10:38:23.694Z,102507.69
2018-12-14T10:40:51.283Z,102505.08
2018-12-14T10:43:18.868Z,102508.63
2018-12-14T10:45:46.749Z,102509.29
2018-12-14T10:48:14.337Z,102509.29
2018-12-14T10:50:41.952Z,102511.98
2018-12-14T10:53:11.542Z,102503.13
2018-12-14T10:55:39.157Z,102505.94
2018-12-14T10:58:06.934Z,102503.05
2018-12-14T11:00:40.224Z,102500.56
2018-12-14T11:03:07.818Z,102498.84
2018-12-14T11:05:35.428Z,102496.70
2018-12-14T11:08:03.017Z,102496.49
2018-12-14T11:10:30.709Z,102484.27
2018-12-14T11:12:58.301Z,102488.95
2018-12-14T11:15:25.906Z,102501.59
2018-12-14T11:17:53.503Z,102498.53
2018-12-14T11:20:21.115Z,102501.91
2018-12-14T11:22:48.698Z,102498.73
2018-12-14T11:25:16.327Z,102491.63
2018-12-14T11:27:43.908Z,102501.73
2018-12-14T11:30:11.712Z,102497.01
2018-12-14T11:32:39.302Z,102498.64
2018-12-14T11:35:06.902Z,102499.38
2018-12-14T11:37:34.489Z,102501.10
2018-12-14T11:40:02.094Z,102496.20
2018-12-14T11:42:29.679Z,102506.48
2018-12-14T11:44:57.271Z,102502.19
2018-12-14T11:47:24.882Z,102499.22
2018-12-14T11:49:52.467Z,102497.20
2018-12-14T11:52:20.075Z,102503.08
2018-12-14T11:54:47.672Z,102493.74
2018-12-14T11:57:15.283Z,102495.09
2018-12-14T11:59:42.871Z,102498.87
2018-12-14T12:02:10.482Z,102498.95
2018-12-14T12:04:38.062Z,102501.27
2018-12-14T12:07:05.699Z,102496.45
2018-12-14T12:09:33.465Z,102495.91
2018-12-14T12:12:01.150Z,102497.38
2018-12-14T12:14:28.739Z,102499.20
2018-12-14T12:16:56.350Z,102488.90
2018-12-14T12:19:23.944Z,102494.59
2018-12-14T12:21:51.631Z,102487.98
2018-12-14T12:24:19.228Z,102489.03
2018-12-14T12:26:46.843Z,102482.31
2018-12-14T12:29:14.435Z,102485.00
2018-12-14T12:34:34.537Z,102485.69
2018-12-14T12:37:02.144Z,102487.23
2018-12-14T12:39:29.736Z,102486.08
2018-12-14T12:41:57.351Z,102493.77
2018-12-14T12:44:24.936Z,102485.70
2018-12-14T12:46:52.554Z,102486.67
2018-12-14T12:49:20.142Z,102489.73
2018-12-14T12:51:47.843Z,102487.24
2018-12-14T12:54:15.559Z,102492.54
2018-12-14T12:56:43.252Z,102494.37
2018-12-14T12:59:10.841Z,102490.53
2018-12-14T13:01:38.453Z,102492.44
2018-12-14T13:04:06.038Z,102494.27
2018-12-14T13:06:33.648Z,102498.80
2018-12-14T13:09:01.330Z,102501.85
2018-12-14T13:11:28.951Z,102497.08
2018-12-14T13:13:56.532Z,102497.08
2018-12-14T13:16:24.126Z,102497.08
2018-12-14T13:18:51.741Z,102497.53
2018-12-14T13:21:19.333Z,102504.84
2018-12-14T13:23:46.954Z,102498.98
2018-12-14T13:26:14.545Z,102503.21
2018-12-14T13:28:42.246Z,102500.52
2018-12-14T13:31:09.832Z,102502.06
2018-12-14T13:33:38.015Z,102499.97
2018-12-14T13:36:05.609Z,102504.37
2018-12-14T13:38:33.227Z,102507.25
2018-12-14T13:41:00.824Z,102502.84
2018-12-14T13:43:28.440Z,102502.47
2018-12-14T13:45:56.032Z,102503.82
2018-12-14T13:48:23.651Z,102507.55
2018-12-14T13:50:51.323Z,102504.98
2018-12-14T13:53:18.945Z,102509.39
2018-12-14T13:55:46.535Z,102508.41
2018-12-14T13:58:14.146Z,102514.77
2018-12-14T14:00:41.748Z,102518.02
2018-12-14T14:03:10.336Z,102523.98
2018-12-14T14:05:38.098Z,102529.55
2018-12-14T14:08:05.710Z,102527.83
2018-12-14T14:10:33.299Z,102535.90
2018-12-14T14:13:00.916Z,102533.77
2018-12-14T14:15:28.508Z,102534.26
2018-12-14T14:17:56.124Z,102535.67
2018-12-14T14:20:23.714Z,102534.55
2018-12-14T14:22:51.343Z,102535.41
2018-12-14T14:25:18.949Z,102538.66
2018-12-14T14:27:46.548Z,102539.14
2018-12-14T14:30:14.163Z,102543.28
2018-12-14T14:32:41.755Z,102543.77
2018-12-14T14:35:09.375Z,102546.05
2018-12-14T14:37:36.972Z,102544.33
2018-12-14T14:40:05.365Z,102539.52
2018-12-14T14:42:32.957Z,102542.31
2018-12-14T14:45:00.572Z,102543.55
2018-12-14T14:47:28.164Z,102542.88
2018-12-14T14:49:55.774Z,102545.56
2018-12-14T14:52:23.358Z,102547.02
2018-12-14T14:54:51.294Z,102555.19
2018-12-14T14:57:18.983Z,102558.32
2018-12-14T14:59:46.590Z,102563.32
2018-12-14T15:02:14.187Z,102558.91
2018-12-14T15:04:41.808Z,102549.89
2018-12-14T15:07:09.403Z,102548.55
2018-12-14T15:09:37.035Z,102563.32
2018-12-14T15:12:04.628Z,102562.57
2018-12-14T15:14:32.247Z,102563.50
2018-12-14T15:16:59.845Z,102568.02
2018-12-14T15:19:27.458Z,102570.44
2018-12-14T15:21:55.055Z,102571.96
2018-12-14T15:24:22.674Z,102573.30
2018-12-14T15:26:50.263Z,102572.89
2018-12-14T15:29:17.894Z,102580.58
2018-12-14T15:31:45.975Z,102579.23
2018-12-14T15:34:14.506Z,102584.72
2018-12-14T15:36:42.416Z,102586.92
2018-12-14T15:39:10.012Z,102589.61
2018-12-14T15:41:37.628Z,102593.63
2018-12-14T15:44:05.220Z,102590.84
2018-12-14T15:46:32.844Z,102593.45
2018-12-14T15:49:00.440Z,102598.34
2018-12-14T15:51:28.058Z,102593.63
2018-12-14T15:53:55.646Z,102598.22
2018-12-14T15:56:23.271Z,102599.56
2018-12-14T15:58:50.865Z,102601.09
2018-12-14T16:01:18.479Z,102602.05
2018-12-14T16:03:46.074Z,102601.19
2018-12-14T16:06:13.687Z,102602.84
2018-12-14T16:08:41.362Z,102602.84
2018-12-14T16:11:08.984Z,102606.87
2018-12-14T16:13:36.580Z,102613.28
2018-12-14T16:16:04.225Z,102617.00
2018-12-14T16:18:31.822Z,102613.16
2018-12-14T16:20:59.454Z,102611.36
2018-12-14T16:23:27.060Z,102617.59
2018-12-14T16:25:54.697Z,102617.59
2018-12-14T16:28:22.288Z,102610.39
2018-12-14T16:30:49.907Z,102610.39
2018-12-14T16:33:17.507Z,102613.94
2018-12-14T16:35:45.111Z,102609.61
2018-12-14T16:38:12.727Z,102620.45
2018-12-14T16:40:40.325Z,102624.97
2018-12-14T16:43:07.940Z,102619.77
2018-12-14T16:45:35.538Z,102625.63
2018-12-14T16:48:03.156Z,102618.98
2018-12-14T16:50:30.832Z,102620.33
2018-12-14T16:52:58.452Z,102625.42
2018-12-14T16:55:26.055Z,102629.45
2018-12-14T16:57:53.752Z,102619.64
2018-12-14T17:00:21.342Z,102619.20
2018-12-14T17:02:48.955Z,102625.42
2018-12-14T17:05:16.552Z,102625.02
2018-12-14T17:07:44.172Z,102623.67
2018-12-14T17:10:11.764Z,102625.60
2018-12-14T17:12:39.384Z,102631.45
2018-12-14T17:15:07.251Z,102632.87
2018-12-14T17:17:34.872Z,102636.89
2018-12-14T17:20:02.468Z,102634.20
2018-12-14T17:22:30.079Z,102642.27
2018-12-14T17:24:57.675Z,102640.92
2018-12-14T17:27:25.290Z,102636.63
2018-12-14T17:29:52.893Z,102637.07
2018-12-14T17:32:20.523Z,102637.48
2018-12-14T17:34:48.200Z,102637.48
2018-12-14T17:37:15.823Z,102635.66
2018-12-14T17:39:43.425Z,102639.20
2018-12-14T17:42:11.019Z,102646.29
2018-12-14T17:44:38.634Z,102644.47
2018-12-14T17:47:06.242Z,102643.23
2018-12-14T17:49:33.863Z,102642.85
2018-12-14T17:52:01.456Z,102646.95
2018-12-14T17:54:29.076Z,102643.50
2018-12-14T17:56:56.676Z,102647.44
2018-12-14T17:59:24.293Z,102645.71
2018-12-14T18:01:51.977Z,102644.92
2018-12-14T18:04:19.592Z,102649.25
2018-12-14T18:06:47.182Z,102647.61
2018-12-14T18:09:14.802Z,102657.86
2018-12-14T18:11:42.401Z,102657.41
2018-12-14T18:14:10.019Z,102657.48
2018-12-14T18:16:37.998Z,102657.41
2018-12-14T18:19:05.804Z,102664.13
2018-12-14T18:21:33.402Z,102659.20
2018-12-14T18:24:01.018Z,102660.55
2018-12-14T18:26:28.610Z,102662.38
2018-12-14T18:28:56.227Z,102667.74
2018-12-14T18:31:23.822Z,102663.34
2018-12-14T18:33:51.431Z,102661.61
2018-12-14T18:36:19.023Z,102667.26
2018-12-14T18:38:46.644Z,102664.98
2018-12-14T18:41:14.235Z,102668.16
2018-12-14T18:43:41.851Z,102668.53
2018-12-14T18:46:09.454Z,102667.09
2018-12-14T18:48:37.071Z,102671.22
2018-12-14T18:51:04.674Z,102675.80
2018-12-14T18:53:32.269Z,102673.97
2018-12-14T18:55:59.892Z,102675.55
2018-12-14T18:58:27.487Z,102676.97
2018-12-14T19:00:55.100Z,102675.80
2018-12-14T19:03:22.699Z,102678.09
2018-12-14T19:05:50.311Z,102680.61
2018-12-14T19:08:17.904Z,102688.56
2018-12-14T19:10:45.518Z,102688.67
2018-12-14T19:13:13.117Z,102694.59
2018-12-14T19:15:40.736Z,102695.55
2018-12-14T19:18:08.333Z,102692.48
2018-12-14T19:20:35.949Z,102693.03
2018-12-14T19:23:03.540Z,102696.20
2018-12-14T19:25:31.156Z,102697.00
2018-12-14T19:27:58.755Z,102697.06
2018-12-14T19:30:26.371Z,102700.71
2018-12-14T19:32:53.969Z,102696.00
2018-12-14T19:35:21.569Z,102702.22
2018-12-14T19:37:49.182Z,102697.34
2018-12-14T19:40:16.851Z,102698.89
2018-12-14T19:42:44.552Z,102691.70
2018-12-14T19:45:12.224Z,102690.84
2018-12-14T19:47:39.840Z,102694.00
2018-12-14T19:50:08.583Z,102691.80
2018-12-14T19:52:36.326Z,102697.92
2018-12-14T19:55:05.797Z,102694.48
2018-12-14T19:57:33.411Z,102701.09
2018-12-14T20:00:01.006Z,102706.77
2018-12-14T20:02:28.623Z,102713.11
2018-12-14T20:04:56.215Z,102713.00
2018-12-14T20:07:23.828Z,102715.31
2018-12-14T20:09:51.415Z,102712.31
2018-12-14T20:12:19.026Z,102721.40
2018-12-14T20:14:46.617Z,102719.98
2018-12-14T20:17:14.227Z,102716.12
2018-12-14T20:19:41.818Z,102722.36
2018-12-14T20:22:09.427Z,102722.36
2018-12-14T20:24:37.014Z,102723.32
2018-12-14T20:27:04.713Z,102726.97
2018-12-14T20:29:32.304Z,102727.89
2018-12-14T20:31:59.919Z,102730.03
2018-12-14T20:34:27.514Z,102734.61
2018-12-14T20:36:55.135Z,102733.84
2018-12-14T20:39:22.729Z,102732.02
2018-12-14T20:41:50.347Z,102734.39
2018-12-14T20:44:17.938Z,102737.17
2018-12-14T20:46:45.609Z,102743.09
2018-12-14T20:49:13.202Z,102738.04
2018-12-14T20:51:40.795Z,102743.79
2018-12-14T20:54:08.417Z,102740.72
2018-12-14T20:56:36.014Z,102746.95
2018-12-14T20:59:03.624Z,102739.92
2018-12-14T21:01:33.523Z,102737.83
2018-12-14T21:04:01.142Z,102736.55
2018-12-14T21:06:28.735Z,102738.85
2018-12-14T21:08:56.342Z,102742.02
2018-12-14T21:11:23.934Z,102744.38
2018-12-14T21:13:51.552Z,102742.56
2018-12-14T21:16:25.637Z,102746.20
2018-12-14T21:18:48.804Z,102744.86
2018-12-14T21:21:16.393Z,102741.80
2018-12-14T21:23:44.003Z,102745.45
2018-12-14T21:26:11.590Z,102746.79
2018-12-14T21:28:39.207Z,102745.03
2018-12-14T21:31:06.802Z,102740.08
2018-12-14T21:33:34.421Z,102742.77
2018-12-14T21:36:02.011Z,102744.48
2018-12-14T21:38:29.634Z,102742.18
2018-12-14T21:40:57.223Z,102748.89
2018-12-14T21:43:24.856Z,102740.84
2018-12-14T21:45:52.459Z,102741.32
2018-12-14T21:48:20.054Z,102736.50
2018-12-14T21:50:47.668Z,102740.14
2018-12-14T21:53:15.262Z,102742.45
2018-12-14T21:55:42.878Z,102737.24
2018-12-14T21:58:10.662Z,102733.12
2018-12-14T22:00:38.279Z,102734.94
2018-12-14T22:03:05.872Z,102731.78
2018-12-14T22:05:33.495Z,102737.14
2018-12-14T22:08:01.110Z,102731.39
2018-12-14T22:10:28.719Z,102731.02
2018-12-14T22:12:56.314Z,102730.63
2018-12-14T22:15:23.937Z,102731.56
2018-12-14T22:17:51.527Z,102736.38
2018-12-14T22:20:19.139Z,102738.20
2018-12-14T22:22:46.739Z,102740.89
2018-12-14T22:25:14.352Z,102742.23
2018-12-14T22:27:41.950Z,102738.58
2018-12-14T22:30:09.639Z,102742.70
2018-12-14T22:32:37.226Z,102741.36
2018-12-14T22:35:04.925Z,102742.70
2018-12-14T22:37:32.512Z,102742.30
2018-12-14T22:40:00.129Z,102744.98
2018-12-14T22:42:27.732Z,102745.45
2018-12-14T22:44:55.346Z,102742.39
2018-12-14T22:47:22.946Z,102735.75
2018-12-14T22:49:50.560Z,102742.08
2018-12-14T22:52:18.151Z,102739.02
2018-12-14T22:54:45.768Z,102741.70
2018-12-14T22:57:13.361Z,102739.55
2018-12-14T22:59:40.975Z,102730.58
2018-12-14T23:02:08.574Z,102729.23
2018-12-14T23:04:36.186Z,102735.53
2018-12-14T23:07:03.776Z,102736.49
2018-12-14T23:09:31.394Z,102728.45
2018-12-14T23:11:58.987Z,102727.97
2018-12-14T23:14:26.602Z,102726.72
2018-12-14T23:16:54.200Z,102736.97
2018-12-14T23:19:21.819Z,102733.91
2018-12-14T23:21:49.421Z,102725.55
2018-12-14T23:24:17.045Z,102732.34
2018-12-14T23:26:44.649Z,102736.81
2018-12-14T23:29:12.238Z,102736.38
2018-12-14T23:31:39.966Z,102733.27
2018-12-14T23:34:07.588Z,102739.13
2018-12-14T23:36:35.215Z,102735.58
2018-12-14T23:39:03.496Z,102735.58
2018-12-14T23:41:31.111Z,102738.26
2018-12-14T23:43:58.698Z,102733.75
2018-12-14T23:46:26.310Z,102736.75
2018-12-14T23:48:53.902Z,102737.62
2018-12-14T23:51:21.514Z,102732.63
2018-12-14T23:53:49.111Z,102731.03
2018-12-14T23:56:16.743Z,102737.36
2018-12-14T23:58:44.339Z,102740.30
